TFM - Tactical Decision Aid
ID: Runway Winds: CIG/VIS Threshold:

KJZI - Charleston/Executive, SC, US

Updated at: 1359 UTC 10 Aug 2022
Latest TAF at: 1120 UTC 10 Aug 2022

TAF Board

Time1355Z 10/14Z 10/15Z 10/16Z 10/17Z 10/18Z 10/19Z 10/20Z 10/21Z 10/22Z 10/23Z 11/00Z 11/01Z 11/02Z>>
Type OBS PRVL PRVL PRVL PRVL PRVL PRVL PRVL PRVL PRVL PRVL PRVL PRVL PRVL
VIS 10 >6 >6 >6 >6 >6 >6 >6 >6 >6 >6 >6 >6 >6
CIG -- -- -- -- -- -- -- -- -- -- 250 250 250 250
Cover CLR SCT SCT SCT SCT SCT SCT SCT SCT SCT BKN BKN BKN BKN
FltCat VFR VFR VFR VFR VFR VFR VFR VFR VFR VFR VFR VFR VFR VFR
WX -- -- -- -- -- -- -- -- -- -- -- -- -- --
WDir 250 230 230 230 200 200 200 200 200 200 200 200 200 200
WSpd 5 7 7 7 11 11 11 11 11 11 7 7 7 7
WGst -- -- -- -- -- -- -- -- -- -- -- -- -- --
WSHgt -- -- -- -- -- -- -- -- -- -- -- -- -- --
WSDir -- -- -- -- -- -- -- -- -- -- -- -- -- --
WSSpd -- -- -- -- -- -- -- -- -- -- -- -- -- --

TDA Impact Legend

  None Marginal Slight Moderate High
Visibility (sm) >5 3≤X≤5 2≤X<3 0.75≤X<2 <0.75
Ceiling (100 ft) >30 10≤X≤30 6≤X<10 3≤X<6 <3
Wind Speed (kt) <15 15≤X<25 25≤X<30 ≥30
Wind Gust (kt) <15 15≤X<25 25≤X<35 ≥35
Weather No Wx Reported VCTS -TS,-FZRA TS,FZRA +TS,+FZRA
TAF
KJZI 101120Z 1012/1112 23007KT P6SM SCT025
  FM101700 20011KT P6SM SCT045
  FM102300 20007KT P6SM FEW050 SCT150 BKN250


METAR
KJZI 101355Z AUTO 25005KT 10SM CLR 30/24 A3021 RMK AO2
KJZI 101335Z AUTO 25005KT 10SM CLR 30/23 A3021 RMK AO2
KJZI 101315Z AUTO 29006KT 10SM CLR 29/23 A3021 RMK AO2
KJZI 101255Z AUTO 29004KT 10SM CLR 29/22 A3021 RMK AO2
KJZI 101235Z AUTO 28004KT 10SM CLR 28/23 A3021 RMK AO2
KJZI 101215Z AUTO 27003KT 10SM CLR 26/23 A3020 RMK AO2
KJZI 101155Z AUTO 28003KT 10SM CLR 26/23 A3020 RMK AO2
KJZI 101135Z AUTO 29003KT 10SM CLR 26/24 A3020 RMK AO2
KJZI 101115Z AUTO 00000KT 9SM FEW026 24/24 A3019 RMK AO2
KJZI 101055Z AUTO 00000KT 10SM SCT023 BKN029 BKN038 24/24 A3019 RMK AO2
KJZI 101035Z AUTO 00000KT 10SM BKN025 BKN031 OVC038 24/24 A3018 RMK AO2

Radar Display
Forecast Discussion